LPA407 UGTB-USSS
Flight info
| Callsign | LPA407 |
|---|---|
| Flight time | N/A |
| Altitude | 32000 |
| Route | KUFA1D KUFAN A921 IPLED N37 AKT N996 KODUM Z210 AKB L992 NEBIS NEBI6S |
| Aircraft | SR22/H-SDE3GHIJ2J3J5M1RVWXY/LB2D1 |
Departure
| Time | 2026-04-25 22:46 |
|---|---|
| Airport | Tbilisi International Airport (UGTB) |
Arrival
| Time | N/A |
|---|---|
| Airport | Koltsovo Airport (USSS) |
| Time | Latitude | Longitude | Altitude | Speed | Heading |
|---|---|---|---|---|---|
| 2026-04-25 22:20 | 41.66931 | 44.95986 | 1570 ft | 0 kts | 223° |
| 2026-04-25 22:32 | 41.66933 | 44.95987 | 1571 ft | 1 kts | 224° |
| 2026-04-25 22:33 | 41.66943 | 44.96002 | 1572 ft | 2 kts | 228° |
| 2026-04-25 22:33 | 41.66953 | 44.96017 | 1573 ft | 2 kts | 224° |
| 2026-04-25 22:33 | 41.66964 | 44.96031 | 1574 ft | 2 kts | 205° |
| 2026-04-25 22:33 | 41.66978 | 44.96034 | 1574 ft | 2 kts | 166° |
| 2026-04-25 22:34 | 41.66992 | 44.96026 | 1575 ft | 2 kts | 132° |
| 2026-04-25 22:34 | 41.67001 | 44.96011 | 1575 ft | 2 kts | 131° |
| 2026-04-25 22:34 | 41.67012 | 44.95996 | 1576 ft | 2 kts | 135° |
| 2026-04-25 22:34 | 41.67018 | 44.95986 | 1576 ft | 0 kts | 135° |
| 2026-04-25 22:36 | 41.67018 | 44.95987 | 1576 ft | 1 kts | 135° |
| 2026-04-25 22:36 | 41.66978 | 44.96053 | 1575 ft | 14 kts | 131° |
| 2026-04-25 22:36 | 41.66927 | 44.96127 | 1573 ft | 16 kts | 133° |
| 2026-04-25 22:36 | 41.66845 | 44.96242 | 1572 ft | 11 kts | 133° |
| 2026-04-25 22:37 | 41.66793 | 44.96315 | 1572 ft | 10 kts | 133° |
| 2026-04-25 22:37 | 41.66742 | 44.96386 | 1571 ft | 12 kts | 134° |
| 2026-04-25 22:37 | 41.66698 | 44.96422 | 1569 ft | 7 kts | 170° |
| 2026-04-25 22:37 | 41.66596 | 44.96399 | 1561 ft | 15 kts | 194° |
| 2026-04-25 22:38 | 41.66488 | 44.96362 | 1555 ft | 16 kts | 194° |
| 2026-04-25 22:38 | 41.66363 | 44.96320 | 1547 ft | 20 kts | 193° |
| 2026-04-25 22:38 | 41.66234 | 44.96299 | 1539 ft | 0 kts | 173° |
| 2026-04-25 22:38 | 41.66204 | 44.96308 | 1537 ft | 11 kts | 163° |
| 2026-04-25 22:39 | 41.66128 | 44.96363 | 1533 ft | 24 kts | 142° |
| 2026-04-25 22:39 | 41.66018 | 44.96499 | 1527 ft | 11 kts | 136° |
| 2026-04-25 22:39 | 41.65948 | 44.96585 | 1519 ft | 16 kts | 147° |
| 2026-04-25 22:39 | 41.65924 | 44.96598 | 1516 ft | 0 kts | 169° |
| 2026-04-25 22:40 | 41.65895 | 44.96598 | 1514 ft | 0 kts | 196° |
| 2026-04-25 22:43 | 41.65852 | 44.96518 | 1513 ft | 16 kts | 267° |
| 2026-04-25 22:43 | 41.65884 | 44.96422 | 1517 ft | 16 kts | 309° |
| 2026-04-25 22:43 | 41.65899 | 44.96401 | 1519 ft | 0 kts | 315° |
| 2026-04-25 22:45 | 41.65917 | 44.96377 | 1520 ft | 18 kts | 314° |
| 2026-04-25 22:45 | 41.66236 | 44.95971 | 1533 ft | 108 kts | 316° |
| 2026-04-25 22:46 | 41.66986 | 44.95020 | 1555 ft | 182 kts | 316° |
| 2026-04-25 22:46 | 41.67974 | 44.93745 | 2099 ft | 206 kts | 315° |
| 2026-04-25 22:46 | 41.69023 | 44.92452 | 3161 ft | 202 kts | 318° |
| 2026-04-25 22:46 | 41.70079 | 44.91167 | 3594 ft | 215 kts | 317° |
| 2026-04-25 22:47 | 41.71211 | 44.89770 | 3976 ft | 230 kts | 317° |
| 2026-04-25 22:47 | 41.72434 | 44.88253 | 4344 ft | 246 kts | 317° |
| 2026-04-25 22:47 | 41.73725 | 44.86647 | 4685 ft | 261 kts | 317° |
| 2026-04-25 22:47 | 41.75097 | 44.84942 | 5193 ft | 269 kts | 317° |
| 2026-04-25 22:48 | 41.76459 | 44.83249 | 5828 ft | 271 kts | 317° |
| 2026-04-25 22:48 | 41.77875 | 44.81497 | 6548 ft | 277 kts | 319° |
| 2026-04-25 22:48 | 41.79540 | 44.80291 | 7436 ft | 278 kts | 346° |
| 2026-04-25 22:48 | 41.80815 | 44.80117 | 8007 ft | 280 kts | 4° |
| 2026-04-25 22:49 | 41.83221 | 44.81383 | 9110 ft | 285 kts | 40° |
| 2026-04-25 22:49 | 41.84404 | 44.83476 | 9919 ft | 288 kts | 67° |
| 2026-04-25 22:49 | 41.84773 | 44.85232 | 10321 ft | 296 kts | 83° |
| 2026-04-25 22:49 | 41.84589 | 44.89034 | 10856 ft | 320 kts | 91° |
| 2026-04-25 22:50 | 41.84664 | 44.91075 | 11115 ft | 333 kts | 85° |
| 2026-04-25 22:50 | 41.84888 | 44.94234 | 11664 ft | 346 kts | 84° |
| 2026-04-25 22:50 | 41.85239 | 44.98497 | 12793 ft | 350 kts | 83° |
| 2026-04-25 22:50 | 41.85515 | 45.01765 | 13566 ft | 355 kts | 83° |
| 2026-04-25 22:51 | 41.85792 | 45.05063 | 14321 ft | 359 kts | 83° |
| 2026-04-25 22:51 | 41.86071 | 45.08381 | 15063 ft | 363 kts | 83° |
| 2026-04-25 22:51 | 41.86355 | 45.11785 | 15796 ft | 367 kts | 83° |
| 2026-04-25 22:51 | 41.86541 | 45.14018 | 16261 ft | 369 kts | 83° |
| 2026-04-25 22:52 | 41.86926 | 45.18644 | 17189 ft | 375 kts | 83° |